NCAR-RAP Real-Time Weather Data

Output produced by METARs form (12 May 2021  10:29 UTC)
found at http://weather.rap.ucar.edu/surface/
 
KEYE 120953Z AUTO 04003KT 10SM CLR 04/M01 A3038 RMK AO2 SLP288 T00441006 $
KEYE 120853Z AUTO 01004KT CLR 04/M01 A3036 RMK AO2 SLP283 T00391006 53002 $
KEYE 120753Z AUTO 02003KT 10SM CLR 04/M01 A3035 RMK AO2 SLP280 T00441006 $
KEYE 120653Z AUTO 03005KT 10SM CLR 05/M01 A3035 RMK AO2 SLP280 T00501006 $
KEYE 120553Z AUTO 01006KT 10SM CLR 06/M01 A3036 RMK AO2 SLP282 T00561006 10122 20056 58002 $
KEYE 120453Z AUTO 36006KT 10SM CLR 06/M01 A3036 RMK AO2 SLP283 T00611006 401440061 $
KEYE 120353Z AUTO 35005KT 10SM CLR 07/M01 A3037 RMK AO2 SLP285 T00721006 $
KEYE 120253Z AUTO 35006KT 10SM CLR 08/M01 A3036 RMK AO2 SLP284 T00831006 51025 $
KEYE 120153Z AUTO 36009KT 10SM CLR 10/M01 A3034 RMK AO2 SLP277 T01001011 $
KEYE 120053Z AUTO 35007KT 10SM CLR 11/M01 A3031 RMK AO2 SLP267 T01061011 $
KEYE 112353Z AUTO 36009KT 10SM CLR 12/M01 A3029 RMK AO2 SLP258 T01221011 10144 20122 53008 $
KEYE 112253Z AUTO 01010KT 10SM CLR 13/M01 A3027 RMK AO2 SLP251 T01281006 $
KEYE 112153Z AUTO 10SM CLR 13/00 A3027 RMK AO2 SLP251 T01330000 $
KEYE 112053Z AUTO 03008G17KT 010V070 10SM FEW060 13/M01 A3026 RMK AO2 SLP249 T01331006 56010 $
KEYE 111953Z AUTO 36008KT 10SM FEW060 14/00 A3027 RMK AO2 SLP250 T01390000
KEYE 111853Z AUTO 03009G18KT 350V050 10SM SCT060 14/M01 A3028 RMK AO2 SLP254 T01391006 $